sensor_id;sensor_type;location;lat;lon;timestamp;P1;durP1;ratioP1;P2;durP2;ratioP2
15679;SDS011;15488;48.114;11.532;2023-03-01T00:01:00;14.50;;;7.83;;
15679;SDS011;15488;48.114;11.532;2023-03-01T00:03:28;10.57;;;6.67;;
15679;SDS011;15488;48.114;11.532;2023-03-01T00:05:58;12.10;;;6.83;;
15679;SDS011;15488;48.114;11.532;2023-03-01T00:08:26;11.40;;;7.50;;
15679;SDS011;15488;48.114;11.532;2023-03-01T00:11:01;9.53;;;6.07;;
15679;SDS011;15488;48.114;11.532;2023-03-01T00:13:30;10.73;;;7.20;;
15679;SDS011;15488;48.114;11.532;2023-03-01T00:15:58;12.20;;;7.60;;
15679;SDS011;15488;48.114;11.532;2023-03-01T00:18:28;12.03;;;7.40;;
15679;SDS011;15488;48.114;11.532;2023-03-01T00:20:55;17.00;;;10.13;;
15679;SDS011;15488;48.114;11.532;2023-03-01T00:23:24;12.97;;;7.70;;
15679;SDS011;15488;48.114;11.532;2023-03-01T00:25:52;13.73;;;7.60;;
15679;SDS011;15488;48.114;11.532;2023-03-01T00:28:20;14.13;;;8.07;;
15679;SDS011;15488;48.114;11.532;2023-03-01T00:30:48;11.53;;;6.80;;
15679;SDS011;15488;48.114;11.532;2023-03-01T00:33:15;11.93;;;7.37;;
15679;SDS011;15488;48.114;11.532;2023-03-01T00:35:43;11.97;;;6.93;;
15679;SDS011;15488;48.114;11.532;2023-03-01T00:38:12;12.57;;;7.17;;
15679;SDS011;15488;48.114;11.532;2023-03-01T00:40:39;10.23;;;6.37;;
15679;SDS011;15488;48.114;11.532;2023-03-01T00:43:07;11.10;;;6.77;;
15679;SDS011;15488;48.114;11.532;2023-03-01T00:45:35;9.87;;;6.03;;
15679;SDS011;15488;48.114;11.532;2023-03-01T00:48:02;12.00;;;6.80;;
15679;SDS011;15488;48.114;11.532;2023-03-01T00:50:30;10.77;;;6.23;;
15679;SDS011;15488;48.114;11.532;2023-03-01T00:52:58;11.03;;;7.40;;
15679;SDS011;15488;48.114;11.532;2023-03-01T00:55:26;10.63;;;6.40;;
15679;SDS011;15488;48.114;11.532;2023-03-01T00:57:54;13.13;;;7.23;;
15679;SDS011;15488;48.114;11.532;2023-03-01T01:00:21;12.10;;;7.30;;
15679;SDS011;15488;48.114;11.532;2023-03-01T01:02:49;13.67;;;8.27;;
15679;SDS011;15488;48.114;11.532;2023-03-01T01:05:16;11.97;;;7.93;;
15679;SDS011;15488;48.114;11.532;2023-03-01T01:07:45;12.83;;;7.10;;
15679;SDS011;15488;48.114;11.532;2023-03-01T01:10:14;10.67;;;7.50;;
15679;SDS011;15488;48.114;11.532;2023-03-01T01:12:44;13.80;;;7.50;;
15679;SDS011;15488;48.114;11.532;2023-03-01T01:15:12;10.60;;;7.30;;
15679;SDS011;15488;48.114;11.532;2023-03-01T01:17:41;11.03;;;7.53;;
15679;SDS011;15488;48.114;11.532;2023-03-01T01:20:10;12.17;;;7.47;;
15679;SDS011;15488;48.114;11.532;2023-03-01T01:22:38;10.73;;;7.23;;
15679;SDS011;15488;48.114;11.532;2023-03-01T01:25:06;11.77;;;7.30;;
15679;SDS011;15488;48.114;11.532;2023-03-01T01:27:34;14.47;;;9.27;;
15679;SDS011;15488;48.114;11.532;2023-03-01T01:30:03;12.77;;;8.37;;
15679;SDS011;15488;48.114;11.532;2023-03-01T01:32:31;12.27;;;8.00;;
15679;SDS011;15488;48.114;11.532;2023-03-01T01:34:59;12.17;;;7.47;;
15679;SDS011;15488;48.114;11.532;2023-03-01T01:37:26;11.37;;;8.00;;
15679;SDS011;15488;48.114;11.532;2023-03-01T01:39:56;11.63;;;7.40;;
15679;SDS011;15488;48.114;11.532;2023-03-01T01:42:24;11.93;;;7.33;;
15679;SDS011;15488;48.114;11.532;2023-03-01T01:47:58;10.17;;;7.00;;
15679;SDS011;15488;48.114;11.532;2023-03-01T01:50:31;14.50;;;7.60;;
15679;SDS011;15488;48.114;11.532;2023-03-01T01:53:03;11.47;;;7.53;;
15679;SDS011;15488;48.114;11.532;2023-03-01T01:55:32;12.83;;;8.23;;
15679;SDS011;15488;48.114;11.532;2023-03-01T01:58:02;11.13;;;7.50;;
15679;SDS011;15488;48.114;11.532;2023-03-01T02:00:33;13.93;;;7.73;;
15679;SDS011;15488;48.114;11.532;2023-03-01T02:03:03;11.87;;;7.40;;
15679;SDS011;15488;48.114;11.532;2023-03-01T02:05:36;12.27;;;7.60;;
15679;SDS011;15488;48.114;11.532;2023-03-01T02:08:10;13.07;;;7.30;;
15679;SDS011;15488;48.114;11.532;2023-03-01T02:10:39;10.93;;;6.70;;
15679;SDS011;15488;48.114;11.532;2023-03-01T02:13:08;11.90;;;7.93;;
15679;SDS011;15488;48.114;11.532;2023-03-01T02:15:37;11.63;;;7.27;;
15679;SDS011;15488;48.114;11.532;2023-03-01T02:18:08;12.73;;;7.90;;
15679;SDS011;15488;48.114;11.532;2023-03-01T02:20:39;11.93;;;6.83;;
15679;SDS011;15488;48.114;11.532;2023-03-01T02:23:15;9.80;;;6.70;;
15679;SDS011;15488;48.114;11.532;2023-03-01T02:25:46;11.37;;;6.53;;
15679;SDS011;15488;48.114;11.532;2023-03-01T02:28:24;10.97;;;7.57;;
15679;SDS011;15488;48.114;11.532;2023-03-01T02:30:53;11.43;;;7.93;;
15679;SDS011;15488;48.114;11.532;2023-03-01T02:33:38;12.03;;;7.97;;
15679;SDS011;15488;48.114;11.532;2023-03-01T02:36:08;11.63;;;7.57;;
15679;SDS011;15488;48.114;11.532;2023-03-01T02:38:38;12.13;;;7.53;;
15679;SDS011;15488;48.114;11.532;2023-03-01T02:41:06;12.43;;;8.27;;
15679;SDS011;15488;48.114;11.532;2023-03-01T02:43:37;12.63;;;8.10;;
15679;SDS011;15488;48.114;11.532;2023-03-01T02:46:06;11.97;;;8.50;;
15679;SDS011;15488;48.114;11.532;2023-03-01T02:48:41;12.37;;;7.67;;
15679;SDS011;15488;48.114;11.532;2023-03-01T02:51:11;12.67;;;7.40;;
15679;SDS011;15488;48.114;11.532;2023-03-01T02:53:49;12.43;;;7.90;;
15679;SDS011;15488;48.114;11.532;2023-03-01T02:56:21;12.53;;;7.27;;
15679;SDS011;15488;48.114;11.532;2023-03-01T02:58:50;11.90;;;7.90;;
15679;SDS011;15488;48.114;11.532;2023-03-01T03:01:17;11.87;;;7.63;;
15679;SDS011;15488;48.114;11.532;2023-03-01T03:03:45;11.03;;;7.93;;
15679;SDS011;15488;48.114;11.532;2023-03-01T03:06:13;11.97;;;7.37;;
15679;SDS011;15488;48.114;11.532;2023-03-01T03:08:40;10.70;;;7.30;;
15679;SDS011;15488;48.114;11.532;2023-03-01T03:11:09;13.67;;;7.80;;
15679;SDS011;15488;48.114;11.532;2023-03-01T03:13:36;12.20;;;7.60;;
15679;SDS011;15488;48.114;11.532;2023-03-01T03:16:14;10.20;;;7.37;;
15679;SDS011;15488;48.114;11.532;2023-03-01T03:18:41;12.80;;;7.67;;
15679;SDS011;15488;48.114;11.532;2023-03-01T03:21:09;10.47;;;7.40;;
15679;SDS011;15488;48.114;11.532;2023-03-01T03:23:37;13.23;;;8.10;;
15679;SDS011;15488;48.114;11.532;2023-03-01T03:26:05;11.63;;;7.37;;
15679;SDS011;15488;48.114;11.532;2023-03-01T03:28:33;11.77;;;8.13;;
15679;SDS011;15488;48.114;11.532;2023-03-01T03:31:05;12.97;;;8.23;;
15679;SDS011;15488;48.114;11.532;2023-03-01T03:33:34;11.67;;;7.73;;
15679;SDS011;15488;48.114;11.532;2023-03-01T03:36:02;13.47;;;8.03;;
15679;SDS011;15488;48.114;11.532;2023-03-01T03:38:30;11.90;;;8.07;;
15679;SDS011;15488;48.114;11.532;2023-03-01T03:41:02;12.60;;;8.10;;
15679;SDS011;15488;48.114;11.532;2023-03-01T03:43:33;13.43;;;8.17;;
15679;SDS011;15488;48.114;11.532;2023-03-01T03:46:03;12.03;;;7.97;;
15679;SDS011;15488;48.114;11.532;2023-03-01T03:48:31;13.67;;;8.37;;
15679;SDS011;15488;48.114;11.532;2023-03-01T03:51:00;13.47;;;8.03;;
15679;SDS011;15488;48.114;11.532;2023-03-01T03:53:30;12.60;;;7.77;;
15679;SDS011;15488;48.114;11.532;2023-03-01T03:55:57;13.13;;;7.73;;
15679;SDS011;15488;48.114;11.532;2023-03-01T03:58:25;11.80;;;7.77;;
15679;SDS011;15488;48.114;11.532;2023-03-01T04:00:54;12.63;;;7.53;;
15679;SDS011;15488;48.114;11.532;2023-03-01T04:03:23;10.80;;;7.20;;
15679;SDS011;15488;48.114;11.532;2023-03-01T04:05:51;12.03;;;8.10;;
15679;SDS011;15488;48.114;11.532;2023-03-01T04:08:21;11.50;;;7.67;;
15679;SDS011;15488;48.114;11.532;2023-03-01T04:10:50;11.57;;;7.57;;
15679;SDS011;15488;48.114;11.532;2023-03-01T04:13:19;12.40;;;7.87;;
15679;SDS011;15488;48.114;11.532;2023-03-01T04:15:48;10.80;;;7.77;;
15679;SDS011;15488;48.114;11.532;2023-03-01T04:18:16;11.63;;;8.10;;
15679;SDS011;15488;48.114;11.532;2023-03-01T04:20:45;12.30;;;7.87;;
15679;SDS011;15488;48.114;11.532;2023-03-01T04:23:13;12.63;;;7.83;;
15679;SDS011;15488;48.114;11.532;2023-03-01T04:25:46;13.17;;;8.33;;
15679;SDS011;15488;48.114;11.532;2023-03-01T04:28:18;13.97;;;7.60;;
15679;SDS011;15488;48.114;11.532;2023-03-01T04:30:46;13.23;;;8.40;;
15679;SDS011;15488;48.114;11.532;2023-03-01T04:33:14;12.80;;;8.10;;
15679;SDS011;15488;48.114;11.532;2023-03-01T04:35:41;12.67;;;8.20;;
15679;SDS011;15488;48.114;11.532;2023-03-01T04:38:09;10.97;;;7.47;;
15679;SDS011;15488;48.114;11.532;2023-03-01T04:40:37;11.93;;;8.03;;
15679;SDS011;15488;48.114;11.532;2023-03-01T04:43:09;12.00;;;7.93;;
15679;SDS011;15488;48.114;11.532;2023-03-01T04:45:37;12.17;;;8.13;;
15679;SDS011;15488;48.114;11.532;2023-03-01T04:48:04;12.57;;;8.07;;
15679;SDS011;15488;48.114;11.532;2023-03-01T04:50:32;12.50;;;7.67;;
15679;SDS011;15488;48.114;11.532;2023-03-01T04:53:00;11.13;;;7.63;;
15679;SDS011;15488;48.114;11.532;2023-03-01T04:55:28;12.00;;;8.00;;
15679;SDS011;15488;48.114;11.532;2023-03-01T04:57:56;12.60;;;7.97;;
15679;SDS011;15488;48.114;11.532;2023-03-01T05:00:25;12.57;;;8.30;;
15679;SDS011;15488;48.114;11.532;2023-03-01T05:02:53;13.30;;;8.47;;
15679;SDS011;15488;48.114;11.532;2023-03-01T05:05:23;12.47;;;8.40;;
15679;SDS011;15488;48.114;11.532;2023-03-01T05:07:56;10.43;;;7.63;;
15679;SDS011;15488;48.114;11.532;2023-03-01T05:10:24;13.97;;;8.60;;
15679;SDS011;15488;48.114;11.532;2023-03-01T05:12:55;13.13;;;8.23;;
15679;SDS011;15488;48.114;11.532;2023-03-01T05:15:24;13.10;;;8.50;;
15679;SDS011;15488;48.114;11.532;2023-03-01T05:17:53;12.03;;;8.07;;
15679;SDS011;15488;48.114;11.532;2023-03-01T05:20:23;13.53;;;8.17;;
15679;SDS011;15488;48.114;11.532;2023-03-01T05:22:51;11.57;;;7.27;;
15679;SDS011;15488;48.114;11.532;2023-03-01T05:25:21;13.43;;;8.10;;
15679;SDS011;15488;48.114;11.532;2023-03-01T05:27:48;11.70;;;7.70;;
15679;SDS011;15488;48.114;11.532;2023-03-01T05:30:17;13.67;;;7.87;;
15679;SDS011;15488;48.114;11.532;2023-03-01T05:32:46;11.93;;;8.00;;
15679;SDS011;15488;48.114;11.532;2023-03-01T05:35:15;12.20;;;7.63;;
15679;SDS011;15488;48.114;11.532;2023-03-01T05:37:44;13.50;;;8.90;;
15679;SDS011;15488;48.114;11.532;2023-03-01T05:40:14;13.70;;;8.87;;
15679;SDS011;15488;48.114;11.532;2023-03-01T05:42:43;11.40;;;8.27;;
15679;SDS011;15488;48.114;11.532;2023-03-01T05:45:11;11.90;;;8.00;;
15679;SDS011;15488;48.114;11.532;2023-03-01T05:47:39;14.27;;;8.47;;
15679;SDS011;15488;48.114;11.532;2023-03-01T05:50:11;12.93;;;8.07;;
15679;SDS011;15488;48.114;11.532;2023-03-01T05:52:44;13.67;;;8.30;;
15679;SDS011;15488;48.114;11.532;2023-03-01T05:55:13;12.53;;;8.60;;
15679;SDS011;15488;48.114;11.532;2023-03-01T05:57:41;11.57;;;8.10;;
15679;SDS011;15488;48.114;11.532;2023-03-01T06:00:09;12.37;;;7.90;;
15679;SDS011;15488;48.114;11.532;2023-03-01T06:02:37;13.60;;;8.27;;
15679;SDS011;15488;48.114;11.532;2023-03-01T06:05:05;13.87;;;8.80;;
15679;SDS011;15488;48.114;11.532;2023-03-01T06:07:36;11.90;;;7.97;;
15679;SDS011;15488;48.114;11.532;2023-03-01T06:10:04;12.23;;;7.67;;
15679;SDS011;15488;48.114;11.532;2023-03-01T06:12:33;12.30;;;7.90;;
15679;SDS011;15488;48.114;11.532;2023-03-01T06:15:01;13.13;;;7.97;;
15679;SDS011;15488;48.114;11.532;2023-03-01T06:17:31;13.93;;;7.67;;
15679;SDS011;15488;48.114;11.532;2023-03-01T06:20:02;12.67;;;7.73;;
15679;SDS011;15488;48.114;11.532;2023-03-01T06:22:31;14.80;;;8.23;;
15679;SDS011;15488;48.114;11.532;2023-03-01T06:24:59;12.93;;;8.07;;
15679;SDS011;15488;48.114;11.532;2023-03-01T06:27:27;11.70;;;7.80;;
15679;SDS011;15488;48.114;11.532;2023-03-01T06:29:54;14.60;;;8.60;;
15679;SDS011;15488;48.114;11.532;2023-03-01T06:32:22;11.80;;;8.20;;
15679;SDS011;15488;48.114;11.532;2023-03-01T06:34:49;11.57;;;7.77;;
15679;SDS011;15488;48.114;11.532;2023-03-01T06:37:17;13.53;;;8.03;;
15679;SDS011;15488;48.114;11.532;2023-03-01T06:39:44;12.37;;;8.20;;
15679;SDS011;15488;48.114;11.532;2023-03-01T06:42:14;13.07;;;8.17;;
15679;SDS011;15488;48.114;11.532;2023-03-01T06:44:41;12.20;;;7.80;;
15679;SDS011;15488;48.114;11.532;2023-03-01T06:47:10;14.13;;;8.80;;
15679;SDS011;15488;48.114;11.532;2023-03-01T06:49:38;14.23;;;8.63;;
15679;SDS011;15488;48.114;11.532;2023-03-01T06:52:06;13.80;;;8.47;;
15679;SDS011;15488;48.114;11.532;2023-03-01T06:54:33;12.77;;;8.57;;
15679;SDS011;15488;48.114;11.532;2023-03-01T06:57:00;14.93;;;8.30;;
15679;SDS011;15488;48.114;11.532;2023-03-01T06:59:29;14.33;;;9.30;;
15679;SDS011;15488;48.114;11.532;2023-03-01T07:01:57;14.67;;;8.70;;
15679;SDS011;15488;48.114;11.532;2023-03-01T07:04:24;13.73;;;7.83;;
15679;SDS011;15488;48.114;11.532;2023-03-01T07:06:53;12.97;;;8.27;;
15679;SDS011;15488;48.114;11.532;2023-03-01T07:09:21;13.90;;;8.20;;
15679;SDS011;15488;48.114;11.532;2023-03-01T07:11:48;16.17;;;8.23;;
15679;SDS011;15488;48.114;11.532;2023-03-01T07:14:16;14.73;;;8.60;;
15679;SDS011;15488;48.114;11.532;2023-03-01T07:16:46;12.00;;;8.00;;
15679;SDS011;15488;48.114;11.532;2023-03-01T07:19:13;13.87;;;9.10;;
15679;SDS011;15488;48.114;11.532;2023-03-01T07:21:41;14.47;;;9.90;;
15679;SDS011;15488;48.114;11.532;2023-03-01T07:24:08;14.70;;;8.77;;
15679;SDS011;15488;48.114;11.532;2023-03-01T07:26:36;13.87;;;8.23;;
15679;SDS011;15488;48.114;11.532;2023-03-01T07:29:04;13.73;;;8.13;;
15679;SDS011;15488;48.114;11.532;2023-03-01T07:31:33;15.90;;;8.43;;
15679;SDS011;15488;48.114;11.532;2023-03-01T07:34:02;15.03;;;8.67;;
15679;SDS011;15488;48.114;11.532;2023-03-01T07:36:29;14.57;;;8.43;;
15679;SDS011;15488;48.114;11.532;2023-03-01T07:38:57;15.30;;;8.80;;
15679;SDS011;15488;48.114;11.532;2023-03-01T07:41:27;14.40;;;8.70;;
15679;SDS011;15488;48.114;11.532;2023-03-01T07:43:54;14.70;;;8.87;;
15679;SDS011;15488;48.114;11.532;2023-03-01T07:46:22;16.33;;;8.80;;
15679;SDS011;15488;48.114;11.532;2023-03-01T07:48:49;13.50;;;8.50;;
15679;SDS011;15488;48.114;11.532;2023-03-01T07:51:18;14.00;;;8.50;;
15679;SDS011;15488;48.114;11.532;2023-03-01T07:53:46;14.43;;;8.50;;
15679;SDS011;15488;48.114;11.532;2023-03-01T07:56:13;14.10;;;8.83;;
15679;SDS011;15488;48.114;11.532;2023-03-01T07:58:45;13.40;;;8.60;;
15679;SDS011;15488;48.114;11.532;2023-03-01T08:01:13;13.67;;;8.27;;
15679;SDS011;15488;48.114;11.532;2023-03-01T08:03:43;14.33;;;8.47;;
15679;SDS011;15488;48.114;11.532;2023-03-01T08:06:14;13.23;;;8.27;;
15679;SDS011;15488;48.114;11.532;2023-03-01T08:08:44;17.17;;;9.00;;
15679;SDS011;15488;48.114;11.532;2023-03-01T08:11:12;12.10;;;8.07;;
15679;SDS011;15488;48.114;11.532;2023-03-01T08:13:41;18.27;;;9.43;;
15679;SDS011;15488;48.114;11.532;2023-03-01T08:16:10;13.20;;;8.20;;
15679;SDS011;15488;48.114;11.532;2023-03-01T08:18:39;14.70;;;8.33;;
15679;SDS011;15488;48.114;11.532;2023-03-01T08:21:09;14.90;;;8.70;;
15679;SDS011;15488;48.114;11.532;2023-03-01T08:23:37;13.17;;;8.37;;
15679;SDS011;15488;48.114;11.532;2023-03-01T08:26:07;16.43;;;8.70;;
15679;SDS011;15488;48.114;11.532;2023-03-01T08:28:37;18.40;;;9.43;;
15679;SDS011;15488;48.114;11.532;2023-03-01T08:31:12;14.40;;;8.53;;
15679;SDS011;15488;48.114;11.532;2023-03-01T08:33:40;13.83;;;8.77;;
15679;SDS011;15488;48.114;11.532;2023-03-01T08:36:08;13.50;;;7.70;;
15679;SDS011;15488;48.114;11.532;2023-03-01T08:38:35;14.13;;;6.90;;
15679;SDS011;15488;48.114;11.532;2023-03-01T08:41:03;13.93;;;8.67;;
15679;SDS011;15488;48.114;11.532;2023-03-01T08:43:32;15.43;;;8.97;;
15679;SDS011;15488;48.114;11.532;2023-03-01T08:45:59;12.90;;;8.10;;
15679;SDS011;15488;48.114;11.532;2023-03-01T08:48:27;14.93;;;7.97;;
15679;SDS011;15488;48.114;11.532;2023-03-01T08:50:54;13.67;;;8.43;;
15679;SDS011;15488;48.114;11.532;2023-03-01T08:53:22;14.13;;;8.00;;
15679;SDS011;15488;48.114;11.532;2023-03-01T08:55:50;12.30;;;7.20;;
15679;SDS011;15488;48.114;11.532;2023-03-01T08:58:17;13.53;;;8.27;;
15679;SDS011;15488;48.114;11.532;2023-03-01T09:00:46;14.97;;;9.07;;
15679;SDS011;15488;48.114;11.532;2023-03-01T09:03:13;12.73;;;7.93;;
15679;SDS011;15488;48.114;11.532;2023-03-01T09:05:41;15.27;;;7.90;;
15679;SDS011;15488;48.114;11.532;2023-03-01T09:08:10;13.77;;;8.47;;
15679;SDS011;15488;48.114;11.532;2023-03-01T09:10:38;14.93;;;9.50;;
15679;SDS011;15488;48.114;11.532;2023-03-01T09:13:05;14.30;;;7.33;;
15679;SDS011;15488;48.114;11.532;2023-03-01T09:15:33;14.27;;;7.97;;
15679;SDS011;15488;48.114;11.532;2023-03-01T09:18:04;15.13;;;8.20;;
15679;SDS011;15488;48.114;11.532;2023-03-01T09:20:31;13.27;;;8.63;;
15679;SDS011;15488;48.114;11.532;2023-03-01T09:22:59;12.57;;;7.97;;
15679;SDS011;15488;48.114;11.532;2023-03-01T09:25:27;13.33;;;9.00;;
15679;SDS011;15488;48.114;11.532;2023-03-01T09:27:54;15.33;;;7.87;;
15679;SDS011;15488;48.114;11.532;2023-03-01T09:30:22;14.97;;;8.07;;
15679;SDS011;15488;48.114;11.532;2023-03-01T09:32:50;13.47;;;8.00;;
15679;SDS011;15488;48.114;11.532;2023-03-01T09:35:19;14.23;;;8.17;;
15679;SDS011;15488;48.114;11.532;2023-03-01T09:37:47;14.93;;;8.73;;
15679;SDS011;15488;48.114;11.532;2023-03-01T09:40:15;13.90;;;8.20;;
15679;SDS011;15488;48.114;11.532;2023-03-01T09:42:47;14.90;;;8.73;;
15679;SDS011;15488;48.114;11.532;2023-03-01T09:45:23;14.07;;;8.03;;
15679;SDS011;15488;48.114;11.532;2023-03-01T09:47:56;15.33;;;9.37;;
15679;SDS011;15488;48.114;11.532;2023-03-01T09:50:26;12.83;;;7.43;;
15679;SDS011;15488;48.114;11.532;2023-03-01T09:53:01;14.40;;;8.07;;
15679;SDS011;15488;48.114;11.532;2023-03-01T09:55:30;15.70;;;8.27;;
15679;SDS011;15488;48.114;11.532;2023-03-01T09:58:06;14.47;;;8.00;;
15679;SDS011;15488;48.114;11.532;2023-03-01T10:00:55;16.07;;;8.00;;
15679;SDS011;15488;48.114;11.532;2023-03-01T10:03:26;16.67;;;9.20;;
15679;SDS011;15488;48.114;11.532;2023-03-01T10:05:59;18.00;;;8.23;;
15679;SDS011;15488;48.114;11.532;2023-03-01T10:08:36;14.70;;;9.57;;
15679;SDS011;15488;48.114;11.532;2023-03-01T10:11:19;13.67;;;8.07;;
15679;SDS011;15488;48.114;11.532;2023-03-01T10:13:50;14.53;;;8.17;;
15679;SDS011;15488;48.114;11.532;2023-03-01T10:16:25;15.53;;;8.50;;
15679;SDS011;15488;48.114;11.532;2023-03-01T10:19:05;14.50;;;8.37;;
15679;SDS011;15488;48.114;11.532;2023-03-01T10:21:40;15.63;;;8.37;;
15679;SDS011;15488;48.114;11.532;2023-03-01T10:24:12;15.90;;;8.17;;
15679;SDS011;15488;48.114;11.532;2023-03-01T10:26:47;15.93;;;8.27;;
15679;SDS011;15488;48.114;11.532;2023-03-01T10:29:20;15.23;;;8.67;;
15679;SDS011;15488;48.114;11.532;2023-03-01T10:31:53;15.87;;;9.03;;
15679;SDS011;15488;48.114;11.532;2023-03-01T10:34:29;18.17;;;8.90;;
15679;SDS011;15488;48.114;11.532;2023-03-01T10:37:01;14.47;;;8.50;;
15679;SDS011;15488;48.114;11.532;2023-03-01T10:39:35;15.87;;;9.30;;
15679;SDS011;15488;48.114;11.532;2023-03-01T10:42:04;13.87;;;8.37;;
15679;SDS011;15488;48.114;11.532;2023-03-01T10:44:44;13.87;;;7.63;;
15679;SDS011;15488;48.114;11.532;2023-03-01T10:47:14;15.27;;;8.73;;
15679;SDS011;15488;48.114;11.532;2023-03-01T10:49:52;15.47;;;8.47;;
15679;SDS011;15488;48.114;11.532;2023-03-01T10:52:27;15.13;;;9.43;;
15679;SDS011;15488;48.114;11.532;2023-03-01T10:54:56;18.23;;;10.03;;
15679;SDS011;15488;48.114;11.532;2023-03-01T10:57:36;16.70;;;9.67;;
15679;SDS011;15488;48.114;11.532;2023-03-01T11:00:17;15.70;;;8.47;;
15679;SDS011;15488;48.114;11.532;2023-03-01T11:02:48;18.43;;;10.03;;
15679;SDS011;15488;48.114;11.532;2023-03-01T11:05:22;17.33;;;10.13;;
15679;SDS011;15488;48.114;11.532;2023-03-01T11:07:53;15.23;;;8.87;;
15679;SDS011;15488;48.114;11.532;2023-03-01T11:10:22;15.53;;;9.67;;
15679;SDS011;15488;48.114;11.532;2023-03-01T11:12:51;17.40;;;10.63;;
15679;SDS011;15488;48.114;11.532;2023-03-01T11:15:21;14.90;;;9.10;;
15679;SDS011;15488;48.114;11.532;2023-03-01T11:17:51;14.27;;;9.13;;
15679;SDS011;15488;48.114;11.532;2023-03-01T11:20:23;16.00;;;9.60;;
15679;SDS011;15488;48.114;11.532;2023-03-01T11:22:58;16.73;;;10.07;;
15679;SDS011;15488;48.114;11.532;2023-03-01T11:25:30;17.53;;;10.10;;
15679;SDS011;15488;48.114;11.532;2023-03-01T11:28:01;17.40;;;9.87;;
15679;SDS011;15488;48.114;11.532;2023-03-01T11:30:32;19.77;;;10.83;;
15679;SDS011;15488;48.114;11.532;2023-03-01T11:33:08;18.63;;;10.07;;
15679;SDS011;15488;48.114;11.532;2023-03-01T11:35:45;21.23;;;11.07;;
15679;SDS011;15488;48.114;11.532;2023-03-01T11:38:21;16.60;;;9.73;;
15679;SDS011;15488;48.114;11.532;2023-03-01T11:40:52;18.73;;;10.77;;
15679;SDS011;15488;48.114;11.532;2023-03-01T11:43:31;20.07;;;11.33;;
15679;SDS011;15488;48.114;11.532;2023-03-01T11:49:12;15.90;;;10.10;;
15679;SDS011;15488;48.114;11.532;2023-03-01T11:51:51;18.73;;;10.60;;
15679;SDS011;15488;48.114;11.532;2023-03-01T11:54:33;18.67;;;10.40;;
15679;SDS011;15488;48.114;11.532;2023-03-01T11:57:13;16.83;;;10.43;;
15679;SDS011;15488;48.114;11.532;2023-03-01T12:00:07;16.77;;;10.27;;
15679;SDS011;15488;48.114;11.532;2023-03-01T12:05:52;14.17;;;9.47;;
15679;SDS011;15488;48.114;11.532;2023-03-01T12:08:41;16.87;;;10.50;;
15679;SDS011;15488;48.114;11.532;2023-03-01T12:11:19;18.73;;;11.10;;
15679;SDS011;15488;48.114;11.532;2023-03-01T12:14:07;16.93;;;10.43;;
15679;SDS011;15488;48.114;11.532;2023-03-01T12:17:06;18.47;;;11.33;;
15679;SDS011;15488;48.114;11.532;2023-03-01T12:19:47;18.20;;;11.30;;
15679;SDS011;15488;48.114;11.532;2023-03-01T12:22:37;18.70;;;11.97;;
15679;SDS011;15488;48.114;11.532;2023-03-01T12:25:16;17.97;;;12.07;;
15679;SDS011;15488;48.114;11.532;2023-03-01T12:30:54;18.27;;;11.80;;
15679;SDS011;15488;48.114;11.532;2023-03-01T12:33:33;20.03;;;11.87;;
15679;SDS011;15488;48.114;11.532;2023-03-01T12:36:15;17.73;;;11.97;;
15679;SDS011;15488;48.114;11.532;2023-03-01T12:39:03;19.17;;;11.80;;
15679;SDS011;15488;48.114;11.532;2023-03-01T12:41:46;18.30;;;11.83;;
15679;SDS011;15488;48.114;11.532;2023-03-01T12:44:26;18.57;;;11.73;;
15679;SDS011;15488;48.114;11.532;2023-03-01T12:47:14;17.70;;;11.67;;
15679;SDS011;15488;48.114;11.532;2023-03-01T12:49:49;19.70;;;11.97;;
15679;SDS011;15488;48.114;11.532;2023-03-01T12:52:22;17.43;;;11.77;;
15679;SDS011;15488;48.114;11.532;2023-03-01T12:54:54;15.17;;;11.33;;
15679;SDS011;15488;48.114;11.532;2023-03-01T12:57:25;17.73;;;12.63;;
15679;SDS011;15488;48.114;11.532;2023-03-01T13:00:05;16.70;;;12.40;;
15679;SDS011;15488;48.114;11.532;2023-03-01T13:02:47;16.87;;;12.63;;
15679;SDS011;15488;48.114;11.532;2023-03-01T13:05:24;16.60;;;12.90;;
15679;SDS011;15488;48.114;11.532;2023-03-01T13:08:05;15.93;;;12.57;;
15679;SDS011;15488;48.114;11.532;2023-03-01T13:10:40;14.50;;;12.73;;
15679;SDS011;15488;48.114;11.532;2023-03-01T13:13:13;15.37;;;13.63;;
15679;SDS011;15488;48.114;11.532;2023-03-01T13:15:45;17.63;;;12.73;;
15679;SDS011;15488;48.114;11.532;2023-03-01T13:18:31;17.50;;;13.77;;
15679;SDS011;15488;48.114;11.532;2023-03-01T13:21:00;15.43;;;12.73;;
15679;SDS011;15488;48.114;11.532;2023-03-01T13:23:30;15.87;;;13.53;;
15679;SDS011;15488;48.114;11.532;2023-03-01T13:26:01;15.73;;;14.03;;
15679;SDS011;15488;48.114;11.532;2023-03-01T13:28:54;16.87;;;14.20;;
15679;SDS011;15488;48.114;11.532;2023-03-01T13:34:50;16.90;;;14.33;;
15679;SDS011;15488;48.114;11.532;2023-03-01T13:37:19;16.47;;;13.90;;
15679;SDS011;15488;48.114;11.532;2023-03-01T13:39:50;17.00;;;13.63;;
15679;SDS011;15488;48.114;11.532;2023-03-01T13:42:35;17.10;;;14.10;;
15679;SDS011;15488;48.114;11.532;2023-03-01T13:45:24;17.03;;;13.93;;
15679;SDS011;15488;48.114;11.532;2023-03-01T13:48:01;17.30;;;13.73;;
15679;SDS011;15488;48.114;11.532;2023-03-01T13:50:38;19.13;;;14.60;;
15679;SDS011;15488;48.114;11.532;2023-03-01T13:53:12;19.47;;;14.27;;
15679;SDS011;15488;48.114;11.532;2023-03-01T13:55:44;18.90;;;14.20;;
15679;SDS011;15488;48.114;11.532;2023-03-01T13:58:19;18.93;;;14.13;;
15679;SDS011;15488;48.114;11.532;2023-03-01T14:00:55;16.03;;;13.13;;
15679;SDS011;15488;48.114;11.532;2023-03-01T14:03:23;20.07;;;13.97;;
15679;SDS011;15488;48.114;11.532;2023-03-01T14:06:00;19.80;;;14.43;;
15679;SDS011;15488;48.114;11.532;2023-03-01T14:08:32;20.13;;;14.23;;
15679;SDS011;15488;48.114;11.532;2023-03-01T14:14:09;18.13;;;13.30;;
15679;SDS011;15488;48.114;11.532;2023-03-01T14:16:52;16.60;;;13.00;;
15679;SDS011;15488;48.114;11.532;2023-03-01T14:19:27;18.57;;;13.43;;
15679;SDS011;15488;48.114;11.532;2023-03-01T14:22:02;15.53;;;12.93;;
15679;SDS011;15488;48.114;11.532;2023-03-01T14:24:38;17.80;;;14.10;;
15679;SDS011;15488;48.114;11.532;2023-03-01T14:27:11;18.00;;;14.00;;
15679;SDS011;15488;48.114;11.532;2023-03-01T14:29:39;18.20;;;13.90;;
15679;SDS011;15488;48.114;11.532;2023-03-01T14:32:11;15.80;;;13.20;;
15679;SDS011;15488;48.114;11.532;2023-03-01T14:34:44;17.17;;;13.50;;
15679;SDS011;15488;48.114;11.532;2023-03-01T14:37:19;16.30;;;13.73;;
15679;SDS011;15488;48.114;11.532;2023-03-01T14:39:48;17.33;;;13.57;;
15679;SDS011;15488;48.114;11.532;2023-03-01T14:42:16;17.00;;;14.17;;
15679;SDS011;15488;48.114;11.532;2023-03-01T14:44:46;15.73;;;13.20;;
15679;SDS011;15488;48.114;11.532;2023-03-01T14:47:17;15.53;;;12.27;;
15679;SDS011;15488;48.114;11.532;2023-03-01T14:49:53;17.13;;;13.70;;
15679;SDS011;15488;48.114;11.532;2023-03-01T14:52:27;15.93;;;14.10;;
15679;SDS011;15488;48.114;11.532;2023-03-01T14:55:01;16.93;;;14.07;;
15679;SDS011;15488;48.114;11.532;2023-03-01T14:57:31;15.83;;;14.10;;
15679;SDS011;15488;48.114;11.532;2023-03-01T14:59:59;16.73;;;14.40;;